createdAt,value
2022-10-03T00:00:40.793Z,1016.51
2022-10-03T00:01:41.148Z,1016.58
2022-10-03T00:02:40.761Z,1016.57
2022-10-03T00:03:40.709Z,1016.55
2022-10-03T00:04:40.683Z,1016.54
2022-10-03T00:05:40.665Z,1016.55
2022-10-03T00:06:40.640Z,1016.55
2022-10-03T00:07:40.619Z,1016.58
2022-10-03T00:08:40.596Z,1016.57
2022-10-03T00:09:40.577Z,1016.53
2022-10-03T00:10:40.552Z,1016.55
2022-10-03T00:11:41.071Z,1016.59
2022-10-03T00:12:40.510Z,1016.61
2022-10-03T00:13:40.488Z,1016.61
2022-10-03T00:14:40.465Z,1016.64
2022-10-03T00:15:40.510Z,1016.64
2022-10-03T00:16:40.446Z,1016.63
2022-10-03T00:17:40.401Z,1016.68
2022-10-03T00:18:40.377Z,1016.67
2022-10-03T00:19:40.358Z,1016.66
2022-10-03T00:20:40.335Z,1016.68
2022-10-03T00:21:40.845Z,1016.68
2022-10-03T00:22:40.291Z,1016.71
2022-10-03T00:23:40.324Z,1016.69
2022-10-03T00:24:40.245Z,1016.79
2022-10-03T00:25:40.227Z,1016.75
2022-10-03T00:26:40.203Z,1016.78
2022-10-03T00:27:40.184Z,1016.81
2022-10-03T00:28:40.158Z,1016.82
2022-10-03T00:29:40.149Z,1016.83
2022-10-03T00:30:40.114Z,1016.80
2022-10-03T00:31:40.362Z,1016.83
2022-10-03T00:32:40.092Z,1016.86
2022-10-03T00:33:40.051Z,1016.88
2022-10-03T00:34:40.032Z,1016.89
2022-10-03T00:35:40.007Z,1016.88
2022-10-03T00:36:39.987Z,1016.84
2022-10-03T00:37:39.964Z,1016.87
2022-10-03T00:38:39.941Z,1016.88
2022-10-03T00:39:39.922Z,1016.89
2022-10-03T00:40:39.901Z,1016.89
2022-10-03T00:41:40.191Z,1016.87
2022-10-03T00:42:39.854Z,1016.88
2022-10-03T00:43:39.831Z,1016.90
2022-10-03T00:44:39.813Z,1016.91
2022-10-03T00:45:39.786Z,1016.95
2022-10-03T00:46:39.792Z,1016.92
2022-10-03T00:47:39.743Z,1016.96
2022-10-03T00:48:39.737Z,1016.99
2022-10-03T00:49:39.697Z,1016.94
2022-10-03T00:50:39.680Z,1016.97
2022-10-03T00:51:39.985Z,1016.95
2022-10-03T00:52:39.637Z,1016.97
2022-10-03T00:53:39.610Z,1016.96
2022-10-03T00:54:39.591Z,1016.97
2022-10-03T00:55:39.567Z,1016.96
2022-10-03T00:56:39.547Z,1017.00
2022-10-03T00:57:39.523Z,1016.95
2022-10-03T00:58:39.503Z,1017.02
2022-10-03T00:59:39.482Z,1017.00
2022-10-03T01:00:39.511Z,1017.00
2022-10-03T01:01:39.820Z,1017.02
2022-10-03T01:02:39.413Z,1017.01
2022-10-03T01:03:39.391Z,1017.05
2022-10-03T01:04:39.393Z,1017.07
2022-10-03T01:05:39.346Z,1017.03
2022-10-03T01:06:39.327Z,1017.12
2022-10-03T01:07:39.307Z,1017.05
2022-10-03T01:08:39.283Z,1017.11
2022-10-03T01:09:39.281Z,1017.08
2022-10-03T01:10:39.236Z,1017.12
2022-10-03T01:11:39.502Z,1017.10
2022-10-03T01:12:39.194Z,1017.08
2022-10-03T01:13:39.173Z,1017.08
2022-10-03T01:14:39.152Z,1017.10
2022-10-03T01:15:39.170Z,1017.13
2022-10-03T01:16:39.106Z,1017.14
2022-10-03T01:17:39.082Z,1017.11
2022-10-03T01:18:39.063Z,1017.13
2022-10-03T01:19:39.041Z,1017.17
2022-10-03T01:20:39.036Z,1017.18
2022-10-03T01:21:39.284Z,1017.16
2022-10-03T01:22:38.976Z,1017.19
2022-10-03T01:23:38.950Z,1017.17
2022-10-03T01:24:38.932Z,1017.17
2022-10-03T01:25:38.907Z,1017.17
2022-10-03T01:26:38.884Z,1017.15
2022-10-03T01:27:38.861Z,1017.21
2022-10-03T01:28:38.839Z,1017.20
2022-10-03T01:29:38.819Z,1017.17
2022-10-03T01:30:38.799Z,1017.18
2022-10-03T01:31:39.169Z,1017.16
2022-10-03T01:32:38.753Z,1017.16
2022-10-03T01:33:38.730Z,1017.15
2022-10-03T01:34:38.710Z,1017.13
2022-10-03T01:35:38.687Z,1017.22
2022-10-03T01:36:38.792Z,1017.19
2022-10-03T01:37:38.642Z,1017.22
2022-10-03T01:38:38.620Z,1017.25
2022-10-03T01:39:38.599Z,1017.26
2022-10-03T01:40:38.632Z,1017.25
2022-10-03T01:41:38.719Z,1017.27
2022-10-03T01:42:38.531Z,1017.25
2022-10-03T01:43:38.507Z,1017.28
2022-10-03T01:44:38.488Z,1017.27
2022-10-03T01:45:38.464Z,1017.31
2022-10-03T01:46:38.529Z,1017.32
2022-10-03T01:47:38.422Z,1017.31
2022-10-03T01:48:38.400Z,1017.38
2022-10-03T01:49:38.376Z,1017.33
2022-10-03T01:50:38.355Z,1017.36
2022-10-03T01:51:38.627Z,1017.38
2022-10-03T01:52:38.331Z,1017.40
2022-10-03T01:53:38.289Z,1017.36
2022-10-03T01:54:38.267Z,1017.37
2022-10-03T01:55:38.250Z,1017.37
2022-10-03T01:56:38.223Z,1017.36
2022-10-03T01:57:38.200Z,1017.39
2022-10-03T01:58:38.177Z,1017.38
2022-10-03T01:59:38.154Z,1017.38
2022-10-03T02:00:38.200Z,1017.42
2022-10-03T02:01:38.393Z,1017.40
2022-10-03T02:02:38.089Z,1017.41
2022-10-03T02:03:38.071Z,1017.48
2022-10-03T02:04:38.046Z,1017.44
2022-10-03T02:05:38.021Z,1017.48
2022-10-03T02:06:38.001Z,1017.47
2022-10-03T02:07:37.975Z,1017.47
2022-10-03T02:08:37.977Z,1017.52
2022-10-03T02:09:37.932Z,1017.48
2022-10-03T02:10:37.916Z,1017.48
2022-10-03T02:11:38.184Z,1017.47
2022-10-03T02:12:37.867Z,1017.46
2022-10-03T02:13:37.845Z,1017.45
2022-10-03T02:14:37.824Z,1017.48
2022-10-03T02:15:37.798Z,1017.51
2022-10-03T02:16:37.836Z,1017.51
2022-10-03T02:17:37.754Z,1017.48
2022-10-03T02:18:37.734Z,1017.51
2022-10-03T02:19:37.712Z,1017.47
2022-10-03T02:20:37.690Z,1017.53
2022-10-03T02:21:38.075Z,1017.51
2022-10-03T02:22:37.646Z,1017.53
2022-10-03T02:23:37.621Z,1017.54
2022-10-03T02:24:37.618Z,1017.53
2022-10-03T02:25:37.578Z,1017.55
2022-10-03T02:26:37.557Z,1017.59
2022-10-03T02:27:37.532Z,1017.57
2022-10-03T02:28:37.511Z,1017.60
2022-10-03T02:29:37.489Z,1017.61
2022-10-03T02:30:37.466Z,1017.61
2022-10-03T02:31:37.888Z,1017.60
2022-10-03T02:32:37.426Z,1017.61
2022-10-03T02:33:37.400Z,1017.59
2022-10-03T02:34:37.387Z,1017.62
2022-10-03T02:35:37.357Z,1017.64
2022-10-03T02:36:37.335Z,1017.67
2022-10-03T02:37:37.310Z,1017.64
2022-10-03T02:38:37.289Z,1017.59
2022-10-03T02:39:37.274Z,1017.60
2022-10-03T02:40:37.267Z,1017.65
2022-10-03T02:41:37.610Z,1017.64
2022-10-03T02:42:37.205Z,1017.64
2022-10-03T02:43:37.177Z,1017.66
2022-10-03T02:44:37.159Z,1017.66
2022-10-03T02:45:37.204Z,1017.67
2022-10-03T02:46:37.118Z,1017.66
2022-10-03T02:47:37.091Z,1017.62
2022-10-03T02:48:37.067Z,1017.63
2022-10-03T02:49:37.048Z,1017.61
2022-10-03T02:50:37.029Z,1017.60
2022-10-03T02:51:37.395Z,1017.60
2022-10-03T02:52:36.989Z,1017.63
2022-10-03T02:53:36.955Z,1017.66
2022-10-03T02:54:36.934Z,1017.62
2022-10-03T02:55:36.910Z,1017.62
2022-10-03T02:56:36.907Z,1017.65
2022-10-03T02:57:36.867Z,1017.62
2022-10-03T02:58:36.850Z,1017.63
2022-10-03T02:59:36.829Z,1017.65
2022-10-03T03:00:36.854Z,1017.64
2022-10-03T03:01:37.058Z,1017.63
2022-10-03T03:02:36.759Z,1017.61
2022-10-03T03:03:36.735Z,1017.64
2022-10-03T03:04:36.710Z,1017.65
2022-10-03T03:05:36.688Z,1017.65
2022-10-03T03:06:36.665Z,1017.62
2022-10-03T03:07:36.643Z,1017.67
2022-10-03T03:08:36.622Z,1017.62
2022-10-03T03:09:36.597Z,1017.62
2022-10-03T03:10:36.578Z,1017.64
2022-10-03T03:11:37.108Z,1017.64
2022-10-03T03:12:41.097Z,1017.61
2022-10-03T03:13:36.511Z,1017.64
2022-10-03T03:14:36.490Z,1017.67
2022-10-03T03:15:36.465Z,1017.67
2022-10-03T03:16:36.528Z,1017.63
2022-10-03T03:17:36.421Z,1017.66
2022-10-03T03:18:36.396Z,1017.66
2022-10-03T03:19:36.375Z,1017.69
2022-10-03T03:20:36.356Z,1017.63
2022-10-03T03:21:36.329Z,1017.67
2022-10-03T03:22:36.309Z,1017.66
2022-10-03T03:23:36.286Z,1017.68
2022-10-03T03:24:36.265Z,1017.69
2022-10-03T03:25:36.242Z,1017.70
2022-10-03T03:26:36.223Z,1017.68
2022-10-03T03:27:36.198Z,1017.69
2022-10-03T03:28:36.195Z,1017.67
2022-10-03T03:29:36.152Z,1017.68
2022-10-03T03:30:36.130Z,1017.70
2022-10-03T03:31:36.176Z,1017.69
2022-10-03T03:32:36.086Z,1017.68
2022-10-03T03:33:36.061Z,1017.71
2022-10-03T03:34:36.043Z,1017.71
2022-10-03T03:35:36.018Z,1017.76
2022-10-03T03:36:35.999Z,1017.76
2022-10-03T03:37:35.971Z,1017.75
2022-10-03T03:38:35.953Z,1017.76
2022-10-03T03:39:35.929Z,1017.70
2022-10-03T03:40:35.908Z,1017.77
2022-10-03T03:41:35.899Z,1017.77
2022-10-03T03:42:35.871Z,1017.73
2022-10-03T03:43:35.838Z,1017.79
2022-10-03T03:44:35.846Z,1017.76
2022-10-03T03:45:35.838Z,1017.79
2022-10-03T03:46:35.773Z,1017.78
2022-10-03T03:47:35.750Z,1017.77
2022-10-03T03:48:35.729Z,1017.81
2022-10-03T03:49:35.708Z,1017.82
2022-10-03T03:50:35.683Z,1017.78
2022-10-03T03:51:35.664Z,1017.79
2022-10-03T03:52:35.648Z,1017.79
2022-10-03T03:53:35.615Z,1017.77
2022-10-03T03:54:35.595Z,1017.80
2022-10-03T03:55:35.570Z,1017.80
2022-10-03T03:56:35.549Z,1017.80
2022-10-03T03:57:35.527Z,1017.80
2022-10-03T03:58:35.507Z,1017.83
2022-10-03T03:59:35.480Z,1017.80
2022-10-03T04:00:35.478Z,1017.84
2022-10-03T04:01:35.496Z,1017.77
2022-10-03T04:02:35.482Z,1017.82
2022-10-03T04:03:35.390Z,1017.78
2022-10-03T04:04:35.369Z,1017.85
2022-10-03T04:05:35.349Z,1017.82
2022-10-03T04:06:35.324Z,1017.86
2022-10-03T04:07:35.302Z,1017.87
2022-10-03T04:08:35.280Z,1017.87
2022-10-03T04:09:35.260Z,1017.89
2022-10-03T04:10:35.236Z,1017.90
2022-10-03T04:11:35.213Z,1017.90
2022-10-03T04:12:35.191Z,1017.95
2022-10-03T04:13:35.170Z,1017.92
2022-10-03T04:14:35.146Z,1017.93
2022-10-03T04:15:35.122Z,1017.90
2022-10-03T04:16:35.159Z,1017.90
2022-10-03T04:17:35.078Z,1017.90
2022-10-03T04:18:35.056Z,1017.92
2022-10-03T04:19:35.033Z,1017.90
2022-10-03T04:20:35.014Z,1017.90
2022-10-03T04:21:34.993Z,1017.90
2022-10-03T04:22:34.968Z,1017.92
2022-10-03T04:23:34.943Z,1017.90
2022-10-03T04:24:34.924Z,1017.92
2022-10-03T04:25:34.898Z,1017.93
2022-10-03T04:26:34.884Z,1017.96
2022-10-03T04:27:34.855Z,1017.96
2022-10-03T04:28:34.832Z,1017.92
2022-10-03T04:29:34.811Z,1017.92
2022-10-03T04:30:34.787Z,1017.92
2022-10-03T04:31:34.824Z,1017.89
2022-10-03T04:32:34.763Z,1017.89
2022-10-03T04:33:34.720Z,1017.88
2022-10-03T04:34:34.699Z,1017.90
2022-10-03T04:35:34.675Z,1017.91
2022-10-03T04:36:34.653Z,1017.92
2022-10-03T04:37:34.632Z,1017.91
2022-10-03T04:38:34.608Z,1017.91
2022-10-03T04:39:34.585Z,1017.92
2022-10-03T04:40:34.565Z,1017.93
2022-10-03T04:41:34.540Z,1017.91
2022-10-03T04:42:34.518Z,1017.95
2022-10-03T04:43:34.494Z,1017.93
2022-10-03T04:44:34.472Z,1017.98
2022-10-03T04:45:34.498Z,1017.98
2022-10-03T04:46:34.430Z,1018.01
2022-10-03T04:47:34.407Z,1018.02
2022-10-03T04:48:34.399Z,1018.01
2022-10-03T04:49:34.361Z,1018.03
2022-10-03T04:50:34.338Z,1018.02
2022-10-03T04:51:34.318Z,1018.02
2022-10-03T04:52:34.292Z,1018.00
2022-10-03T04:53:34.270Z,1018.03
2022-10-03T04:54:34.255Z,1018.06
2022-10-03T04:55:34.225Z,1018.06
2022-10-03T04:56:34.202Z,1018.07
2022-10-03T04:57:34.182Z,1018.02
2022-10-03T04:58:34.157Z,1018.09
2022-10-03T04:59:34.137Z,1018.02
2022-10-03T05:00:34.114Z,1018.03
2022-10-03T05:01:34.091Z,1017.99
2022-10-03T05:02:34.163Z,1018.02
2022-10-03T05:03:34.045Z,1018.10
2022-10-03T05:04:34.040Z,1018.07
2022-10-03T05:05:34.002Z,1018.08
2022-10-03T05:06:33.976Z,1018.08
2022-10-03T05:07:33.957Z,1018.08
2022-10-03T05:08:33.936Z,1018.08
2022-10-03T05:09:33.911Z,1018.05
2022-10-03T05:10:33.892Z,1018.08
2022-10-03T05:11:33.865Z,1018.07
2022-10-03T05:12:33.842Z,1018.07
2022-10-03T05:13:33.823Z,1018.08
2022-10-03T05:14:33.796Z,1018.12
2022-10-03T05:15:33.777Z,1018.12
2022-10-03T05:16:33.790Z,1018.13
2022-10-03T05:17:33.733Z,1018.13
2022-10-03T05:18:33.713Z,1018.14
2022-10-03T05:19:33.686Z,1018.16
2022-10-03T05:20:33.679Z,1018.13
2022-10-03T05:21:33.644Z,1018.16
2022-10-03T05:22:33.616Z,1018.19
2022-10-03T05:23:33.600Z,1018.19
2022-10-03T05:24:33.570Z,1018.25
2022-10-03T05:25:33.555Z,1018.20
2022-10-03T05:26:45.187Z,1018.23
2022-10-03T05:27:33.510Z,1018.24
2022-10-03T05:28:33.609Z,1018.23
2022-10-03T05:29:33.461Z,1018.23
2022-10-03T05:30:33.436Z,1018.22
2022-10-03T05:31:33.473Z,1018.24
2022-10-03T05:32:33.392Z,1018.26
2022-10-03T05:33:33.371Z,1018.22
2022-10-03T05:34:33.349Z,1018.26
2022-10-03T05:35:33.326Z,1018.22
2022-10-03T05:36:33.320Z,1018.25
2022-10-03T05:37:33.278Z,1018.24
2022-10-03T05:38:33.260Z,1018.24
2022-10-03T05:39:33.237Z,1018.18
2022-10-03T05:40:33.211Z,1018.19
2022-10-03T05:41:33.192Z,1018.18
2022-10-03T05:42:33.166Z,1018.20
2022-10-03T05:43:33.148Z,1018.20
2022-10-03T05:44:33.123Z,1018.22
2022-10-03T05:45:33.157Z,1018.23
2022-10-03T05:46:33.076Z,1018.23
2022-10-03T05:47:33.054Z,1018.24
2022-10-03T05:48:33.039Z,1018.27
2022-10-03T05:49:33.009Z,1018.22
2022-10-03T05:50:32.987Z,1018.24
2022-10-03T05:51:32.963Z,1018.22
2022-10-03T05:52:33.054Z,1018.23
2022-10-03T05:53:32.920Z,1018.18
2022-10-03T05:54:32.894Z,1018.26
2022-10-03T05:55:32.873Z,1018.21
2022-10-03T05:56:34.104Z,1018.19
2022-10-03T05:57:32.830Z,1018.23
2022-10-03T05:58:32.806Z,1018.27
2022-10-03T05:59:32.784Z,1018.28
2022-10-03T06:00:32.761Z,1018.27
2022-10-03T06:01:32.739Z,1018.30
2022-10-03T06:02:33.018Z,1018.30
2022-10-03T06:03:32.756Z,1018.31
2022-10-03T06:04:32.669Z,1018.30
2022-10-03T06:05:32.668Z,1018.26
2022-10-03T06:06:32.625Z,1018.29
2022-10-03T06:07:32.603Z,1018.27
2022-10-03T06:08:32.595Z,1018.34
2022-10-03T06:09:32.560Z,1018.36
2022-10-03T06:10:32.535Z,1018.37
2022-10-03T06:11:32.514Z,1018.37
2022-10-03T06:12:32.489Z,1018.41
2022-10-03T06:13:32.469Z,1018.36
2022-10-03T06:14:32.444Z,1018.40
2022-10-03T06:15:32.424Z,1018.39
2022-10-03T06:16:32.460Z,1018.43
2022-10-03T06:17:32.379Z,1018.50
2022-10-03T06:18:32.407Z,1018.55
2022-10-03T06:19:32.336Z,1018.58
2022-10-03T06:20:32.310Z,1018.61
2022-10-03T06:21:32.290Z,1018.66
2022-10-03T06:22:32.264Z,1018.68
2022-10-03T06:23:32.242Z,1018.69
2022-10-03T06:24:32.239Z,1018.68
2022-10-03T06:25:32.204Z,1018.70
2022-10-03T06:26:32.172Z,1018.75
2022-10-03T06:27:32.153Z,1018.72
2022-10-03T06:28:32.163Z,1018.68
2022-10-03T06:29:32.111Z,1018.73
2022-10-03T06:30:32.134Z,1018.76
2022-10-03T06:31:32.442Z,1018.73
2022-10-03T06:32:32.038Z,1018.75
2022-10-03T06:33:32.020Z,1018.75
2022-10-03T06:34:32.000Z,1018.79
2022-10-03T06:35:31.972Z,1018.81
2022-10-03T06:36:31.945Z,1018.80
2022-10-03T06:37:31.943Z,1018.80
2022-10-03T06:38:31.902Z,1018.78
2022-10-03T06:39:31.881Z,1018.80
2022-10-03T06:40:31.876Z,1018.79
2022-10-03T06:41:31.840Z,1018.79
2022-10-03T06:42:31.814Z,1018.78
2022-10-03T06:43:31.790Z,1018.78
2022-10-03T06:44:31.767Z,1018.76
2022-10-03T06:45:31.746Z,1018.74
2022-10-03T06:46:31.794Z,1018.72
2022-10-03T06:47:31.701Z,1018.76
2022-10-03T06:48:31.684Z,1018.75
2022-10-03T06:49:31.660Z,1018.76
2022-10-03T06:50:31.632Z,1018.76
2022-10-03T06:51:31.611Z,1018.76
2022-10-03T06:52:31.592Z,1018.81
2022-10-03T06:53:31.567Z,1018.77
2022-10-03T06:54:31.542Z,1018.77
2022-10-03T06:55:31.521Z,1018.77
2022-10-03T06:56:31.514Z,1018.80
2022-10-03T06:57:31.475Z,1018.76
2022-10-03T06:58:31.452Z,1018.78
2022-10-03T06:59:31.432Z,1018.77
2022-10-03T07:00:31.408Z,1018.79
2022-10-03T07:01:31.485Z,1018.79
2022-10-03T07:02:31.445Z,1018.74
2022-10-03T07:03:31.341Z,1018.80
2022-10-03T07:04:31.317Z,1018.81
2022-10-03T07:05:31.294Z,1018.80
2022-10-03T07:06:31.269Z,1018.84
2022-10-03T07:07:31.249Z,1018.88
2022-10-03T07:08:31.225Z,1018.90
2022-10-03T07:09:31.203Z,1018.93
2022-10-03T07:10:31.183Z,1018.94
2022-10-03T07:11:31.157Z,1018.94
2022-10-03T07:12:31.152Z,1018.97
2022-10-03T07:13:31.113Z,1018.95
2022-10-03T07:14:31.090Z,1018.96
2022-10-03T07:15:57.792Z,1019.01
2022-10-03T07:16:31.125Z,1018.99
2022-10-03T07:17:31.025Z,1018.98
2022-10-03T07:18:31.001Z,1018.99
2022-10-03T07:19:30.977Z,1018.97
2022-10-03T07:20:30.954Z,1019.07
2022-10-03T07:21:30.934Z,1019.07
2022-10-03T07:22:30.909Z,1019.07
2022-10-03T07:23:30.889Z,1019.08
2022-10-03T07:24:30.867Z,1019.09
2022-10-03T07:25:30.846Z,1019.12
2022-10-03T07:26:30.819Z,1019.13
2022-10-03T07:27:30.801Z,1019.10
2022-10-03T07:28:30.923Z,1019.08
2022-10-03T07:29:30.756Z,1019.11
2022-10-03T07:30:30.728Z,1019.13
2022-10-03T07:31:30.776Z,1019.14
2022-10-03T07:32:30.684Z,1019.12
2022-10-03T07:33:33.349Z,1019.14
2022-10-03T07:34:30.646Z,1019.15
2022-10-03T07:35:30.622Z,1019.14
2022-10-03T07:36:30.594Z,1019.14
2022-10-03T07:37:30.571Z,1019.11
2022-10-03T07:38:30.547Z,1019.12
2022-10-03T07:39:30.526Z,1019.13
2022-10-03T07:40:30.503Z,1019.14
2022-10-03T07:41:30.481Z,1019.16
2022-10-03T07:42:30.460Z,1019.15
2022-10-03T07:43:30.440Z,1019.16
2022-10-03T07:44:30.434Z,1019.20
2022-10-03T07:45:30.475Z,1019.23
2022-10-03T07:46:30.480Z,1019.21
2022-10-03T07:47:30.347Z,1019.22
2022-10-03T07:48:30.330Z,1019.28
2022-10-03T07:49:30.302Z,1019.27
2022-10-03T07:50:30.277Z,1019.28
2022-10-03T07:51:30.256Z,1019.32
2022-10-03T07:52:30.236Z,1019.37
2022-10-03T07:53:30.210Z,1019.36
2022-10-03T07:54:30.188Z,1019.37
2022-10-03T07:55:30.166Z,1019.43
2022-10-03T07:56:30.143Z,1019.44
2022-10-03T07:57:30.121Z,1019.44
2022-10-03T07:58:30.098Z,1019.43
2022-10-03T07:59:30.078Z,1019.47
2022-10-03T08:00:30.072Z,1019.42
2022-10-03T08:01:30.033Z,1019.48
2022-10-03T08:02:30.045Z,1019.48
2022-10-03T08:03:30.076Z,1019.46
2022-10-03T08:04:29.966Z,1019.49
2022-10-03T08:05:29.978Z,1019.45
2022-10-03T08:06:29.930Z,1019.46
2022-10-03T08:07:29.898Z,1019.45
2022-10-03T08:08:29.874Z,1019.45
2022-10-03T08:09:29.853Z,1019.50
2022-10-03T08:10:29.829Z,1019.45
2022-10-03T08:11:29.811Z,1019.46
2022-10-03T08:12:29.787Z,1019.43
2022-10-03T08:13:29.765Z,1019.48
2022-10-03T08:14:29.740Z,1019.50
2022-10-03T08:15:29.761Z,1019.51
2022-10-03T08:16:29.713Z,1019.51
2022-10-03T08:17:29.677Z,1019.54
2022-10-03T08:18:29.652Z,1019.54
2022-10-03T08:19:29.631Z,1019.57
2022-10-03T08:20:29.612Z,1019.59
2022-10-03T08:21:29.586Z,1019.60
2022-10-03T08:22:29.564Z,1019.61
2022-10-03T08:23:29.540Z,1019.61
2022-10-03T08:24:29.518Z,1019.62
2022-10-03T08:25:29.498Z,1019.58
2022-10-03T08:26:29.473Z,1019.62
2022-10-03T08:27:29.456Z,1019.59
2022-10-03T08:28:29.521Z,1019.60
2022-10-03T08:29:29.407Z,1019.59
2022-10-03T08:30:29.384Z,1019.61
2022-10-03T08:31:29.469Z,1019.62
2022-10-03T08:32:29.360Z,1019.59
2022-10-03T08:33:29.322Z,1019.66
2022-10-03T08:34:29.304Z,1019.64
2022-10-03T08:35:29.275Z,1019.65
2022-10-03T08:36:29.251Z,1019.64
2022-10-03T08:37:29.231Z,1019.62
2022-10-03T08:38:29.206Z,1019.63
2022-10-03T08:39:29.191Z,1019.64
2022-10-03T08:40:29.163Z,1019.67
2022-10-03T08:41:29.144Z,1019.67
2022-10-03T08:42:29.120Z,1019.71
2022-10-03T08:43:29.101Z,1019.72
2022-10-03T08:44:30.643Z,1019.75
2022-10-03T08:45:29.057Z,1019.70
2022-10-03T08:46:29.119Z,1019.74
2022-10-03T08:47:29.009Z,1019.79
2022-10-03T08:48:29.005Z,1019.74
2022-10-03T08:49:28.972Z,1019.70
2022-10-03T08:50:28.942Z,1019.74
2022-10-03T08:51:28.934Z,1019.71
2022-10-03T08:52:28.901Z,1019.72
2022-10-03T08:53:28.881Z,1019.68
2022-10-03T08:54:28.854Z,1019.69
2022-10-03T08:55:28.836Z,1019.70
2022-10-03T08:56:28.813Z,1019.69
2022-10-03T08:57:28.794Z,1019.69
2022-10-03T08:58:28.766Z,1019.70
2022-10-03T08:59:28.748Z,1019.70
2022-10-03T09:00:28.722Z,1019.68
2022-10-03T09:01:28.762Z,1019.68
2022-10-03T09:02:28.811Z,1019.69
2022-10-03T09:03:34.455Z,1019.65
2022-10-03T09:04:28.654Z,1019.65
2022-10-03T09:05:28.612Z,1019.66
2022-10-03T09:06:28.597Z,1019.63
2022-10-03T09:07:28.567Z,1019.63
2022-10-03T09:08:28.628Z,1019.63
2022-10-03T09:09:31.082Z,1019.66
2022-10-03T09:10:28.503Z,1019.59
2022-10-03T09:11:28.484Z,1019.58
2022-10-03T09:12:28.543Z,1019.58
2022-10-03T09:13:28.438Z,1019.60
2022-10-03T09:14:28.417Z,1019.63
2022-10-03T09:15:28.392Z,1019.62
2022-10-03T09:16:28.405Z,1019.63
2022-10-03T09:17:28.348Z,1019.67
2022-10-03T09:18:28.327Z,1019.68
2022-10-03T09:19:28.305Z,1019.66
2022-10-03T09:20:28.400Z,1019.67
2022-10-03T09:21:28.264Z,1019.61
2022-10-03T09:22:28.243Z,1019.62
2022-10-03T09:23:28.219Z,1019.59
2022-10-03T09:24:28.209Z,1019.59
2022-10-03T09:25:28.175Z,1019.63
2022-10-03T09:26:28.156Z,1019.61
2022-10-03T09:27:28.130Z,1019.60
2022-10-03T09:28:28.255Z,1019.66
2022-10-03T09:29:28.105Z,1019.66
2022-10-03T09:30:28.070Z,1019.70
2022-10-03T09:31:28.137Z,1019.67
2022-10-03T09:32:28.026Z,1019.69
2022-10-03T09:33:28.003Z,1019.68
2022-10-03T09:34:27.979Z,1019.69
2022-10-03T09:35:28.297Z,1019.70
2022-10-03T09:36:27.956Z,1019.64
2022-10-03T09:37:27.918Z,1019.65
2022-10-03T09:38:27.894Z,1019.65
2022-10-03T09:39:27.871Z,1019.63
2022-10-03T09:40:27.852Z,1019.63
2022-10-03T09:41:27.833Z,1019.63
2022-10-03T09:42:27.807Z,1019.63
2022-10-03T09:43:27.786Z,1019.62
2022-10-03T09:44:27.772Z,1019.63
2022-10-03T09:45:27.741Z,1019.63
2022-10-03T09:46:27.790Z,1019.65
2022-10-03T09:47:27.701Z,1019.71
2022-10-03T09:48:27.681Z,1019.70
2022-10-03T09:49:27.656Z,1019.65
2022-10-03T09:50:27.647Z,1019.67
2022-10-03T09:51:27.614Z,1019.68
2022-10-03T09:52:27.618Z,1019.67
2022-10-03T09:53:27.631Z,1019.66
2022-10-03T09:54:27.553Z,1019.63
2022-10-03T09:55:27.530Z,1019.64
2022-10-03T09:56:27.510Z,1019.64
2022-10-03T09:57:27.490Z,1019.65
2022-10-03T09:58:27.470Z,1019.66
2022-10-03T09:59:27.448Z,1019.64
2022-10-03T10:00:27.429Z,1019.69
2022-10-03T10:01:27.407Z,1019.65
2022-10-03T10:02:27.386Z,1019.66
2022-10-03T10:03:27.367Z,1019.69
2022-10-03T10:04:50.035Z,1019.65
2022-10-03T10:05:27.325Z,1019.64
2022-10-03T10:06:27.306Z,1019.63
2022-10-03T10:07:27.288Z,1019.64
2022-10-03T10:08:27.280Z,1019.57
2022-10-03T10:09:27.247Z,1019.63
2022-10-03T10:10:27.225Z,1019.59
2022-10-03T10:11:29.617Z,1019.59
2022-10-03T10:12:27.183Z,1019.62
2022-10-03T10:13:27.168Z,1019.56
2022-10-03T10:14:27.145Z,1019.56
2022-10-03T10:15:27.127Z,1019.59
2022-10-03T10:16:27.155Z,1019.61
2022-10-03T10:17:27.083Z,1019.58
2022-10-03T10:18:27.064Z,1019.55
2022-10-03T10:19:27.044Z,1019.54
2022-10-03T10:20:27.026Z,1019.56
2022-10-03T10:21:27.004Z,1019.51
2022-10-03T10:22:26.983Z,1019.52
2022-10-03T10:23:26.964Z,1019.51
2022-10-03T10:24:26.962Z,1019.53
2022-10-03T10:25:26.923Z,1019.53
2022-10-03T10:26:39.268Z,1019.53
2022-10-03T10:27:26.887Z,1019.52
2022-10-03T10:28:27.001Z,1019.54
2022-10-03T10:29:26.846Z,1019.53
2022-10-03T10:30:26.828Z,1019.52
2022-10-03T10:31:26.848Z,1019.52
2022-10-03T10:32:26.792Z,1019.52
2022-10-03T10:33:26.765Z,1019.54
2022-10-03T10:34:26.750Z,1019.54
2022-10-03T10:35:26.732Z,1019.56
2022-10-03T10:36:26.711Z,1019.52
2022-10-03T10:37:26.690Z,1019.51
2022-10-03T10:38:26.673Z,1019.50
2022-10-03T10:39:26.651Z,1019.50
2022-10-03T10:40:26.651Z,1019.48
2022-10-03T10:41:26.627Z,1019.52
2022-10-03T10:42:26.638Z,1019.54
2022-10-03T10:43:26.573Z,1019.59
2022-10-03T10:44:26.552Z,1019.56
2022-10-03T10:45:26.536Z,1019.56
2022-10-03T10:46:26.627Z,1019.58
2022-10-03T10:47:26.494Z,1019.57
2022-10-03T10:48:26.475Z,1019.59
2022-10-03T10:49:26.455Z,1019.57
2022-10-03T10:50:26.439Z,1019.62
2022-10-03T10:51:26.417Z,1019.59
2022-10-03T10:52:26.402Z,1019.55
2022-10-03T10:53:26.379Z,1019.57
2022-10-03T10:54:26.361Z,1019.53
2022-10-03T10:55:26.337Z,1019.54
2022-10-03T10:56:26.339Z,1019.48
2022-10-03T10:57:26.300Z,1019.45
2022-10-03T10:58:26.285Z,1019.40
2022-10-03T10:59:26.260Z,1019.43
2022-10-03T11:00:26.409Z,1019.41
2022-10-03T11:01:26.224Z,1019.41
2022-10-03T11:02:26.205Z,1019.39
2022-10-03T11:03:26.183Z,1019.37
2022-10-03T11:04:26.191Z,1019.39
2022-10-03T11:05:26.146Z,1019.38
2022-10-03T11:06:26.129Z,1019.39
2022-10-03T11:07:26.108Z,1019.39
2022-10-03T11:08:26.089Z,1019.38
2022-10-03T11:09:26.067Z,1019.39
2022-10-03T11:10:26.052Z,1019.36
2022-10-03T11:11:26.030Z,1019.36
2022-10-03T11:12:26.034Z,1019.40
2022-10-03T11:13:25.989Z,1019.39
2022-10-03T11:14:25.972Z,1019.42
2022-10-03T11:15:25.950Z,1019.42
2022-10-03T11:16:26.072Z,1019.45
2022-10-03T11:17:25.913Z,1019.44
2022-10-03T11:18:25.893Z,1019.42
2022-10-03T11:19:25.873Z,1019.42
2022-10-03T11:20:25.913Z,1019.42
2022-10-03T11:21:25.895Z,1019.40
2022-10-03T11:22:25.816Z,1019.35
2022-10-03T11:23:25.796Z,1019.34
2022-10-03T11:24:25.777Z,1019.32
2022-10-03T11:25:25.758Z,1019.27
2022-10-03T11:26:25.740Z,1019.24
2022-10-03T11:27:25.715Z,1019.27
2022-10-03T11:28:27.213Z,1019.22
2022-10-03T11:29:25.678Z,1019.28
2022-10-03T11:30:25.658Z,1019.24
2022-10-03T11:31:25.756Z,1019.25
2022-10-03T11:32:25.616Z,1019.28
2022-10-03T11:33:25.779Z,1019.22
2022-10-03T11:34:25.581Z,1019.25
2022-10-03T11:35:25.556Z,1019.24
2022-10-03T11:36:25.540Z,1019.21
2022-10-03T11:37:25.517Z,1019.21
2022-10-03T11:38:25.503Z,1019.22
2022-10-03T11:39:25.480Z,1019.19
2022-10-03T11:40:25.459Z,1019.24
2022-10-03T11:41:25.458Z,1019.22
2022-10-03T11:42:25.423Z,1019.25
2022-10-03T11:43:25.402Z,1019.23
2022-10-03T11:44:25.397Z,1019.22
2022-10-03T11:45:25.405Z,1019.23
2022-10-03T11:46:25.342Z,1019.24
2022-10-03T11:47:25.320Z,1019.18
2022-10-03T11:48:25.301Z,1019.24
2022-10-03T11:49:25.615Z,1019.20
2022-10-03T11:50:25.266Z,1019.21
2022-10-03T11:51:25.243Z,1019.22
2022-10-03T11:52:25.223Z,1019.20
2022-10-03T11:53:25.202Z,1019.25
2022-10-03T11:54:32.732Z,1019.25
2022-10-03T11:55:25.164Z,1019.25
2022-10-03T11:56:25.149Z,1019.26
2022-10-03T11:57:25.124Z,1019.22
2022-10-03T11:58:25.114Z,1019.29
2022-10-03T11:59:26.950Z,1019.25
2022-10-03T12:00:25.107Z,1019.27
2022-10-03T12:01:25.046Z,1019.28
2022-10-03T12:02:25.073Z,1019.28
2022-10-03T12:03:25.077Z,1019.31
2022-10-03T12:04:24.989Z,1019.28
2022-10-03T12:05:24.965Z,1019.23